Time;durP1;ratioP1;P1;durP2;ratioP2;P2;SDS_P1;SDS_P2;PMS_P1;PMS_P2;Temp;Humidity;BMP_temperature;BMP_pressure;BME280_temperature;BME280_humidity;BME280_pressure;Samples;Min_cycle;Max_cycle;Signal;HPM_P1;HPM_P2
2022/10/31 00:00:27;;;;;;;20.35;9.35;;;;;;;10.28;100.00;96339.81;1022324;29;20074;-71
2022/10/31 00:00:58;;;;;;;27.38;9.73;;;;;;;10.25;100.00;96342.09;1021945;29;20083;-70
2022/10/31 00:01:33;;;;;;;20.73;8.98;;;;;;;10.23;100.00;96341.53;1026094;28;20471;-71
2022/10/31 00:02:03;;;;;;;23.58;9.55;;;;;;;10.20;100.00;96342.84;1022449;29;20023;-71
2022/10/31 00:02:34;;;;;;;18.30;9.23;;;;;;;10.18;100.00;96339.66;1017671;29;20276;-70
2022/10/31 00:03:04;;;;;;;18.55;9.88;;;;;;;10.17;100.00;96337.28;1022455;28;20125;-70
2022/10/31 00:03:35;;;;;;;16.63;8.20;;;;;;;10.14;100.00;96333.31;1026147;28;20095;-71
2022/10/31 00:04:05;;;;;;;15.75;8.70;;;;;;;10.12;100.00;96341.41;1026286;28;20023;-70
2022/10/31 00:04:36;;;;;;;17.83;8.60;;;;;;;10.11;100.00;96334.59;1022185;28;20015;-69
2022/10/31 00:05:06;;;;;;;16.48;8.57;;;;;;;10.01;100.00;96329.22;1026000;28;20035;-69
2022/10/31 00:05:41;;;;;;;24.13;9.73;;;;;;;10.07;100.00;96340.59;1022171;29;20558;-72
2022/10/31 00:06:11;;;;;;;17.95;8.55;;;;;;;10.06;100.00;96337.19;1022320;29;20114;-72
2022/10/31 00:06:42;;;;;;;18.85;8.88;;;;;;;10.05;100.00;96345.25;1018175;29;20299;-72
2022/10/31 00:07:12;;;;;;;21.40;8.40;;;;;;;10.03;100.00;96345.53;1018225;29;20099;-70
2022/10/31 00:07:43;;;;;;;20.55;8.63;;;;;;;9.99;100.00;96343.63;1026358;28;20077;-70
2022/10/31 00:08:14;;;;;;;15.63;8.32;;;;;;;9.93;100.00;96337.53;1026702;28;20086;-70
2022/10/31 00:08:46;;;;;;;22.45;8.50;;;;;;;9.91;100.00;96339.59;1018281;29;20022;-70
2022/10/31 00:09:16;;;;;;;17.55;8.38;;;;;;;9.91;100.00;96343.00;1022168;29;20323;-71
2022/10/31 00:09:47;;;;;;;16.35;8.38;;;;;;;9.90;100.00;96343.25;1022190;29;20303;-71
2022/10/31 00:10:17;;;;;;;24.35;8.45;;;;;;;9.87;100.00;96336.66;1022048;29;20094;-69
2022/10/31 00:10:47;;;;;;;19.20;8.50;;;;;;;9.85;100.00;96340.56;1030301;28;20030;-71
2022/10/31 00:11:18;;;;;;;18.33;8.35;;;;;;;9.83;100.00;96337.41;1026187;28;20062;-70
2022/10/31 00:11:48;;;;;;;32.97;11.15;;;;;;;9.84;100.00;96341.59;1030095;28;20077;-70
2022/10/31 00:12:19;;;;;;;31.70;10.88;;;;;;;9.86;100.00;96342.16;1021634;29;20594;-71
2022/10/31 00:12:49;;;;;;;37.75;13.27;;;;;;;9.84;100.00;96336.38;1018190;29;20032;-71
2022/10/31 00:13:20;;;;;;;31.88;11.50;;;;;;;9.84;100.00;96341.59;1022828;28;20477;-70
2022/10/31 00:13:50;;;;;;;31.05;11.30;;;;;;;9.84;100.00;96336.38;1034073;28;20057;-71
2022/10/31 00:14:21;;;;;;;27.15;9.32;;;;;;;9.81;100.00;96335.00;1034237;28;20499;-71
2022/10/31 00:14:51;;;;;;;17.85;8.50;;;;;;;9.75;100.00;96319.47;1030309;28;20136;-70
2022/10/31 00:15:22;;;;;;;20.08;8.52;;;;;;;9.82;100.00;96338.41;1029472;28;20026;-70
2022/10/31 00:15:52;;;;;;;20.17;8.55;;;;;;;9.78;100.00;96334.69;1030151;28;20511;-70
2022/10/31 00:16:26;;;;;;;16.38;8.43;;;;;;;9.72;100.00;96335.66;1024610;28;20129;-72
2022/10/31 00:16:57;;;;;;;15.70;7.93;;;;;;;9.72;100.00;96333.84;1030148;28;20100;-70
2022/10/31 00:17:27;;;;;;;19.15;8.15;;;;;;;9.74;100.00;96341.47;1029110;28;20289;-70
2022/10/31 00:17:58;;;;;;;21.15;8.32;;;;;;;9.74;100.00;96341.47;1034022;28;20029;-72
2022/10/31 00:18:28;;;;;;;20.65;9.18;;;;;;;9.71;100.00;96337.50;1031065;28;20538;-71
2022/10/31 00:19:01;;;;;;;18.52;7.80;;;;;;;9.73;100.00;96339.91;1038451;28;20022;-71
2022/10/31 00:19:31;;;;;;;17.83;8.73;;;;;;;9.71;100.00;96336.72;1030231;28;20113;-71
2022/10/31 00:20:02;;;;;;;20.00;9.40;;;;;;;9.67;100.00;96334.56;1030040;28;20289;-72
2022/10/31 00:20:35;;;;;;;16.35;8.55;;;;;;;9.72;100.00;96340.91;1022130;29;20110;-71
2022/10/31 00:21:06;;;;;;;21.77;10.15;;;;;;;9.69;100.00;96336.94;1022256;29;20271;-72
2022/10/31 00:21:36;;;;;;;29.05;11.55;;;;;;;9.75;100.00;96340.44;1022289;29;20059;-73
2022/10/31 00:22:07;;;;;;;29.25;11.10;;;;;;;9.74;100.00;96336.22;1026043;28;20420;-70
2022/10/31 00:22:37;;;;;;;19.55;9.27;;;;;;;9.71;100.00;96337.50;1029447;28;20038;-71
2022/10/31 00:23:09;;;;;;;18.73;8.63;;;;;;;9.69;100.00;96336.94;1022237;28;20143;-72
2022/10/31 00:23:39;;;;;;;16.20;8.95;;;;;;;9.68;100.00;96338.78;1023536;28;20169;-71
2022/10/31 00:24:10;;;;;;;20.23;8.13;;;;;;;9.68;100.00;96340.59;1029981;28;20383;-70
2022/10/31 00:24:40;;;;;;;19.67;8.20;;;;;;;9.70;100.00;96337.75;1022171;29;20730;-69
2022/10/31 00:25:11;;;;;;;27.08;9.85;;;;;;;9.66;100.00;96333.00;1030306;28;20023;-72
2022/10/31 00:25:41;;;;;;;37.22;13.05;;;;;;;9.59;100.00;96327.13;1022080;29;20100;-70
2022/10/31 00:26:12;;;;;;;34.58;13.60;;;;;;;9.64;100.00;96335.06;1018188;29;20518;-69
2022/10/31 00:26:42;;;;;;;44.97;15.45;;;;;;;9.64;100.00;96342.91;1030141;28;20031;-70
2022/10/31 00:27:13;;;;;;;33.60;12.20;;;;;;;9.66;100.00;96334.81;1034131;28;20040;-72
2022/10/31 00:27:43;;;;;;;35.83;13.60;;;;;;;9.60;100.00;96328.72;1030255;28;20464;-71
2022/10/31 00:28:14;;;;;;;35.67;14.35;;;;;;;9.61;100.00;96338.16;1029932;28;20077;-72
2022/10/31 00:28:44;;;;;;;27.65;11.85;;;;;;;9.62;100.00;96331.91;1020755;29;20591;-70
2022/10/31 00:29:15;;;;;;;30.10;11.65;;;;;;;9.61;100.00;96330.28;1025985;28;20038;-70
2022/10/31 00:29:45;;;;;;;33.55;11.35;;;;;;;9.60;100.00;96336.56;1018255;29;20436;-70
2022/10/31 00:30:16;;;;;;;30.73;9.70;;;;;;;9.60;100.00;96339.19;1025967;28;20113;-69
2022/10/31 00:30:46;;;;;;;20.75;9.10;;;;;;;9.60;100.00;96333.94;1024537;28;20050;-71
2022/10/31 00:31:17;;;;;;;18.98;9.13;;;;;;;9.51;100.00;96319.69;1034174;28;20479;-71
2022/10/31 00:31:47;;;;;;;24.00;9.10;;;;;;;9.57;100.00;96331.81;1034332;28;20444;-70
2022/10/31 00:32:18;;;;;;;17.10;9.07;;;;;;;9.56;100.00;96332.84;1033392;28;20029;-70
2022/10/31 00:32:48;;;;;;;20.55;8.55;;;;;;;9.54;100.00;96339.38;1015114;29;20139;-71
2022/10/31 00:33:19;;;;;;;15.50;8.15;;;;;;;9.58;100.00;96333.38;1022171;29;20035;-71
2022/10/31 00:33:49;;;;;;;20.58;8.60;;;;;;;9.60;100.00;96333.94;1026200;28;20633;-72
2022/10/31 00:34:20;;;;;;;17.80;8.30;;;;;;;9.59;100.00;96334.19;1025687;28;20077;-72
2022/10/31 00:34:50;;;;;;;15.57;7.82;;;;;;;9.57;100.00;96341.50;1026353;28;20125;-71
2022/10/31 00:35:21;;;;;;;16.02;8.07;;;;;;;9.61;100.00;96340.78;1030252;28;20041;-71
2022/10/31 00:35:51;;;;;;;23.80;8.70;;;;;;;9.60;100.00;96344.44;1018255;29;20091;-71
2022/10/31 00:36:22;;;;;;;19.75;8.75;;;;;;;9.61;100.00;96339.97;1030075;28;20148;-72
2022/10/31 00:36:52;;;;;;;18.88;7.70;;;;;;;9.61;100.00;96334.75;1030147;28;20578;-70
2022/10/31 00:37:22;;;;;;;19.17;9.15;;;;;;;9.58;100.00;96333.38;1030027;28;20034;-71
2022/10/31 00:37:53;;;;;;;24.50;9.52;;;;;;;9.64;100.00;96342.13;1026092;28;20062;-70
2022/10/31 00:38:23;;;;;;;19.90;8.50;;;;;;;9.61;100.00;96330.28;1026192;28;20145;-71
2022/10/31 00:38:54;;;;;;;27.85;8.73;;;;;;;9.61;100.00;96332.91;1030071;28;20034;-70
2022/10/31 00:39:25;;;;;;;19.85;9.38;;;;;;;9.60;100.00;96349.69;1027382;28;20042;-69
2022/10/31 00:39:55;;;;;;;19.83;8.80;;;;;;;9.57;100.00;96347.53;1018190;29;20544;-71
2022/10/31 00:40:29;;;;;;;20.95;8.75;;;;;;;9.59;100.00;96342.03;1022271;29;20477;-71
2022/10/31 00:40:59;;;;;;;14.02;8.15;;;;;;;9.59;100.00;96342.84;1022377;28;20046;-71
2022/10/31 00:41:30;;;;;;;16.83;7.40;;;;;;;9.53;100.00;96328.09;1030202;28;20354;-71
2022/10/31 00:42:00;;;;;;;15.35;7.50;;;;;;;9.59;100.00;96342.03;1026178;28;20026;-71
2022/10/31 00:42:31;;;;;;;11.55;6.95;;;;;;;9.58;100.00;96345.69;1029423;28;20092;-71
2022/10/31 00:43:01;;;;;;;18.52;8.35;;;;;;;9.60;100.00;96338.41;1030945;28;20133;-72
2022/10/31 00:43:32;;;;;;;17.80;7.95;;;;;;;9.61;100.00;96345.22;1018194;29;20055;-71
2022/10/31 00:44:02;;;;;;;18.30;7.68;;;;;;;9.58;100.00;96346.50;1026180;28;20066;-72
2022/10/31 00:44:33;;;;;;;14.38;6.85;;;;;;;9.59;100.00;96335.00;1025975;28;20121;-71
2022/10/31 00:45:03;;;;;;;17.05;7.90;;;;;;;9.52;100.00;96336.19;1026122;28;20033;-71
2022/10/31 00:45:34;;;;;;;17.00;7.80;;;;;;;9.50;100.00;96331.19;1029996;28;20026;-71
2022/10/31 00:46:04;;;;;;;25.67;8.43;;;;;;;9.53;100.00;96343.81;1022135;28;20041;-71
2022/10/31 00:46:35;;;;;;;14.40;7.63;;;;;;;9.51;100.00;96334.59;1030083;28;20068;-72
2022/10/31 00:47:05;;;;;;;16.30;7.60;;;;;;;9.53;100.00;96349.06;1022122;29;20038;-70
2022/10/31 00:47:36;;;;;;;14.73;7.60;;;;;;;9.55;100.00;96346.19;1018074;29;20126;-72
2022/10/31 00:48:06;;;;;;;15.68;7.40;;;;;;;9.54;100.00;96345.38;1026083;28;20094;-71
2022/10/31 00:48:37;;;;;;;16.45;7.45;;;;;;;9.53;100.00;96343.81;1030059;28;20061;-72
2022/10/31 00:49:07;;;;;;;14.88;7.57;;;;;;;9.52;100.00;96347.44;1030168;28;20030;-70
2022/10/31 00:49:38;;;;;;;16.90;7.65;;;;;;;9.43;100.00;96336.59;1019320;29;20552;-70
2022/10/31 00:50:08;;;;;;;13.98;7.57;;;;;;;9.49;100.00;96341.91;1022263;29;20027;-70
2022/10/31 00:50:39;;;;;;;13.95;7.25;;;;;;;9.48;100.00;96343.72;1030152;28;20113;-71
2022/10/31 00:51:09;;;;;;;13.75;6.57;;;;;;;9.47;100.00;96350.00;1014153;29;20032;-69
2022/10/31 00:51:40;;;;;;;15.23;8.38;;;;;;;9.47;100.00;96343.97;1026033;28;20050;-70
2022/10/31 00:52:10;;;;;;;16.67;7.03;;;;;;;9.44;100.00;96347.88;1021771;29;20512;-69
2022/10/31 00:52:41;;;;;;;14.93;6.93;;;;;;;9.42;100.00;96345.50;1029774;28;20058;-71
2022/10/31 00:53:11;;;;;;;17.40;7.75;;;;;;;9.38;100.00;96338.34;1025804;28;20030;-72
2022/10/31 00:53:42;;;;;;;17.52;7.53;;;;;;;9.40;100.00;96352.78;1014281;29;20103;-70
2022/10/31 00:54:12;;;;;;;13.70;7.03;;;;;;;9.39;100.00;96345.19;1022155;29;20613;-70
2022/10/31 00:54:43;;;;;;;13.65;6.85;;;;;;;9.38;100.00;96347.00;1029857;28;20026;-71
2022/10/31 00:55:13;;;;;;;17.80;7.10;;;;;;;9.37;100.00;96342.00;1021977;28;20643;-70
2022/10/31 00:55:44;;;;;;;15.50;6.57;;;;;;;9.36;100.00;96349.06;1026089;28;20026;-70
2022/10/31 00:56:14;;;;;;;17.48;7.53;;;;;;;9.33;100.00;96346.13;1022129;29;20035;-70
2022/10/31 00:56:45;;;;;;;18.05;6.68;;;;;;;9.35;100.00;96344.06;1022122;29;20642;-73
2022/10/31 00:57:15;;;;;;;17.63;7.65;;;;;;;9.35;100.00;96346.69;1021893;29;20038;-70
2022/10/31 00:57:47;;;;;;;14.77;6.63;;;;;;;9.34;100.00;96345.09;1022294;29;20089;-71
2022/10/31 00:58:17;;;;;;;14.88;6.82;;;;;;;9.34;100.00;96345.09;1023630;28;20045;-71
2022/10/31 00:58:48;;;;;;;17.77;6.45;;;;;;;9.34;100.00;96343.25;1026432;28;20278;-71
2022/10/31 00:59:18;;;;;;;19.65;6.90;;;;;;;9.33;100.00;96346.94;1025941;28;20074;-70
2022/10/31 00:59:49;;;;;;;20.67;7.28;;;;;;;9.33;100.00;96346.13;1028792;28;20120;-71
2022/10/31 01:00:19;;;;;;;14.65;6.57;;;;;;;9.28;100.00;96332.94;1026088;28;20035;-72
2022/10/31 01:00:56;;;;;;;20.17;7.55;;;;;;;9.33;100.00;96344.31;1025242;28;20435;-73
2022/10/31 01:01:26;;;;;;;14.88;6.88;;;;;;;9.32;100.00;96341.91;1014736;29;20569;-71
2022/10/31 01:01:57;;;;;;;18.05;6.80;;;;;;;9.28;100.00;96332.94;1018248;29;20306;-71
2022/10/31 01:02:27;;;;;;;19.70;6.57;;;;;;;9.34;100.00;96339.84;1017506;29;20072;-71
2022/10/31 01:02:58;;;;;;;17.30;7.43;;;;;;;9.34;100.00;96335.41;1026270;28;20484;-72
2022/10/31 01:03:31;;;;;;;15.90;6.40;;;;;;;9.34;100.00;96340.66;1025960;28;20090;-70
2022/10/31 01:04:01;;;;;;;12.80;7.03;;;;;;;9.32;100.00;96336.69;1038530;28;20057;-72
2022/10/31 01:04:32;;;;;;;15.20;7.03;;;;;;;9.38;100.00;96340.97;1030945;28;20297;-71
2022/10/31 01:05:02;;;;;;;16.98;6.85;;;;;;;9.39;100.00;96345.19;1024448;28;20125;-72
2022/10/31 01:05:33;;;;;;;19.08;6.90;;;;;;;9.37;100.00;96339.38;1018774;29;20035;-70
2022/10/31 01:06:04;;;;;;;19.65;5.85;;;;;;;9.39;100.00;96342.56;1026940;28;20509;-71
2022/10/31 01:06:34;;;;;;;14.38;7.25;;;;;;;9.39;100.00;96339.94;1034706;28;20080;-72
2022/10/31 01:07:05;;;;;;;19.48;7.20;;;;;;;9.41;100.00;96345.72;1026940;28;20403;-71
2022/10/31 01:07:36;;;;;;;16.77;6.97;;;;;;;9.40;100.00;96338.91;1022764;29;20031;-72
2022/10/31 01:08:06;;;;;;;12.18;6.80;;;;;;;9.41;100.00;96340.47;1030885;28;20037;-71
2022/10/31 01:08:37;;;;;;;13.30;7.00;;;;;;;9.39;100.00;96342.56;1030446;28;20305;-71
2022/10/31 01:09:07;;;;;;;16.75;6.53;;;;;;;9.39;100.00;96338.13;1026953;28;20160;-70
2022/10/31 01:09:38;;;;;;;16.25;6.85;;;;;;;9.39;100.00;96340.75;1022697;29;20552;-70
2022/10/31 01:10:09;;;;;;;17.92;6.65;;;;;;;9.36;100.00;96338.59;1022729;28;20069;-71
2022/10/31 01:10:39;;;;;;;11.77;6.57;;;;;;;9.40;100.00;96338.91;1022785;29;20031;-70
2022/10/31 01:11:12;;;;;;;12.50;6.85;;;;;;;9.33;100.00;96325.97;1026811;28;20381;-71
2022/10/31 01:11:43;;;;;;;14.55;7.60;;;;;;;9.40;100.00;96342.31;1022796;28;20100;-70
2022/10/31 01:12:13;;;;;;;13.57;7.00;;;;;;;9.38;100.00;96340.97;1022113;29;20383;-73
2022/10/31 01:12:45;;;;;;;15.60;6.10;;;;;;;9.36;100.00;96340.44;1014855;29;20027;-70
2022/10/31 01:13:15;;;;;;;14.98;6.68;;;;;;;9.38;100.00;96341.75;1014990;29;20035;-73
2022/10/31 01:13:46;;;;;;;12.13;7.30;;;;;;;9.40;100.00;96341.53;1026932;28;20277;-71
2022/10/31 01:14:16;;;;;;;16.67;6.63;;;;;;;9.45;100.00;96345.00;1026697;28;20019;-71
2022/10/31 01:14:47;;;;;;;15.25;6.70;;;;;;;9.48;100.00;96342.94;1026691;28;20866;-70
2022/10/31 01:15:20;;;;;;;17.70;6.80;;;;;;;9.48;100.00;96346.34;1026779;28;20442;-71
2022/10/31 01:15:55;;;;;;;18.63;7.22;;;;;;;9.45;100.00;96342.38;1030935;28;20436;-70
2022/10/31 01:16:26;;;;;;;15.55;6.65;;;;;;;9.46;100.00;96348.44;1037301;28;20742;-71
2022/10/31 01:16:57;;;;;;;14.55;7.03;;;;;;;9.49;100.00;96342.72;1032386;28;20253;-72
2022/10/31 01:17:27;;;;;;;17.52;7.40;;;;;;;9.48;100.00;96351.59;1019969;29;20035;-71
2022/10/31 01:18:01;;;;;;;12.38;7.28;;;;;;;9.48;100.00;96351.59;1022682;29;20481;-70
2022/10/31 01:18:31;;;;;;;15.60;7.00;;;;;;;9.47;100.00;96347.38;1036135;28;20032;-73
2022/10/31 01:19:02;;;;;;;13.05;6.93;;;;;;;9.47;100.00;96351.84;1026751;28;20265;-70
2022/10/31 01:19:35;;;;;;;17.20;6.35;;;;;;;9.45;100.00;96349.44;1022740;29;20598;-71
2022/10/31 01:20:07;;;;;;;12.98;6.80;;;;;;;9.40;100.00;96344.16;1019391;28;20307;-71
2022/10/31 01:20:37;;;;;;;14.10;6.40;;;;;;;9.41;100.00;96345.72;1034950;28;20061;-71
2022/10/31 01:21:18;;;;;;;19.08;6.97;;;;;;;9.37;100.00;96347.25;1030840;28;20327;-72
2022/10/31 01:21:49;;;;;;;14.05;7.13;;;;;;;9.37;100.00;96355.09;1030372;28;20014;-70
2022/10/31 01:22:19;;;;;;;16.48;6.70;;;;;;;9.37;100.00;96355.09;1026516;28;20795;-73
2022/10/31 01:22:50;;;;;;;13.40;6.47;;;;;;;9.35;100.00;96349.28;1034014;28;20034;-71
2022/10/31 01:23:20;;;;;;;13.10;6.47;;;;;;;9.34;100.00;96356.38;1017939;29;20094;-70
2022/10/31 01:23:53;;;;;;;17.05;6.20;;;;;;;9.34;100.00;96352.97;1022834;28;20027;-71
2022/10/31 01:24:23;;;;;;;11.80;6.20;;;;;;;9.34;100.00;96355.56;1015222;29;20035;-71
2022/10/31 01:24:54;;;;;;;17.73;6.68;;;;;;;9.35;100.00;96357.94;1035056;28;20271;-70
2022/10/31 01:25:24;;;;;;;14.27;7.00;;;;;;;9.44;100.00;96356.50;1025060;28;20113;-72
2022/10/31 01:26:03;;;;;;;15.07;7.32;;;;;;;9.40;100.00;96354.63;1019350;29;20078;-70
2022/10/31 01:26:33;;;;;;;11.65;6.68;;;;;;;9.45;100.00;96357.31;1019175;29;20042;-72
2022/10/31 01:27:04;;;;;;;16.30;6.57;;;;;;;9.43;100.00;96349.69;1019144;29;20337;-71
2022/10/31 01:27:34;;;;;;;15.75;6.72;;;;;;;9.45;100.00;96362.53;1023210;29;20512;-70
2022/10/31 01:28:05;;;;;;;15.27;7.05;;;;;;;9.43;100.00;96359.38;1019362;29;20082;-71
2022/10/31 01:28:36;;;;;;;15.40;6.47;;;;;;;9.42;100.00;96355.97;1019069;29;20114;-70
2022/10/31 01:29:07;;;;;;;16.35;6.45;;;;;;;9.42;100.00;96357.78;1023423;29;20031;-71
2022/10/31 01:29:38;;;;;;;18.30;7.25;;;;;;;9.42;100.00;96357.78;1031188;28;20615;-71
2022/10/31 01:30:08;;;;;;;13.65;6.45;;;;;;;9.46;100.00;96356.28;1031485;28;20496;-71
2022/10/31 01:30:39;;;;;;;14.65;6.82;;;;;;;9.43;100.00;96348.91;1031054;28;20114;-71
2022/10/31 01:31:09;;;;;;;15.65;6.35;;;;;;;9.37;100.00;96340.16;1019359;29;20099;-70
2022/10/31 01:31:40;;;;;;;20.33;6.93;;;;;;;9.45;100.00;96358.09;1027410;28;20031;-72
2022/10/31 01:32:10;;;;;;;14.27;6.82;;;;;;;9.40;100.00;96344.16;1026872;28;20050;-67
2022/10/31 01:32:41;;;;;;;18.35;6.85;;;;;;;9.39;100.00;96342.56;1020682;29;20032;-70
2022/10/31 01:33:11;;;;;;;15.52;7.50;;;;;;;9.39;100.00;96343.34;1023345;29;20031;-72
2022/10/31 01:33:42;;;;;;;17.42;7.60;;;;;;;9.48;100.00;96356.81;1027245;28;20027;-71
2022/10/31 01:34:13;;;;;;;16.75;7.70;;;;;;;9.45;100.00;96355.47;1027090;28;20046;-70
2022/10/31 01:34:44;;;;;;;17.15;6.82;;;;;;;9.47;100.00;96360.50;1027243;28;20046;-72
2022/10/31 01:35:14;;;;;;;12.20;6.82;;;;;;;9.50;100.00;96359.22;1027236;28;20281;-71
2022/10/31 01:35:45;;;;;;;10.82;6.68;;;;;;;9.49;100.00;96357.63;1027270;28;20070;-71
2022/10/31 01:36:28;;;;;;;10.25;6.28;;;;;;;9.49;100.00;96350.56;1027144;28;20174;-72
2022/10/31 01:36:58;;;;;;;15.35;6.25;;;;;;;9.50;100.00;96349.53;1023159;29;20101;-70
2022/10/31 01:37:30;;;;;;;15.75;6.38;;;;;;;9.50;100.00;96354.78;1027315;28;20356;-72
2022/10/31 01:38:01;;;;;;;13.57;6.18;;;;;;;9.48;100.00;96356.03;1023070;28;20443;-72
2022/10/31 01:38:31;;;;;;;17.15;6.38;;;;;;;9.47;100.00;96347.38;1023302;29;20873;-73
2022/10/31 01:39:06;;;;;;;13.88;5.43;;;;;;;9.45;100.00;96345.00;1023114;29;20027;-72
2022/10/31 01:39:36;;;;;;;14.25;6.65;;;;;;;9.40;100.00;96338.91;1030071;28;20030;-71
2022/10/31 01:40:08;;;;;;;12.75;6.05;;;;;;;9.42;100.00;96347.31;1027334;28;20357;-71
2022/10/31 01:40:38;;;;;;;15.68;6.03;;;;;;;9.41;100.00;96345.72;1019203;29;20143;-70
2022/10/31 01:41:10;;;;;;;15.15;6.78;;;;;;;9.42;100.00;96348.13;1020670;29;20350;-70
2022/10/31 01:41:42;;;;;;;15.30;6.35;;;;;;;9.36;100.00;96337.81;1027120;28;20027;-70
2022/10/31 01:42:17;;;;;;;10.63;5.13;;;;;;;9.44;100.00;96345.25;1022653;28;20396;-70
2022/10/31 01:42:48;;;;;;;12.20;6.18;;;;;;;9.44;100.00;96343.41;1027089;28;20854;-70
2022/10/31 01:43:18;;;;;;;18.98;6.60;;;;;;;9.44;100.00;96345.25;1023063;29;20370;-73
2022/10/31 01:43:56;;;;;;;12.05;6.50;;;;;;;9.42;100.00;96337.66;1027188;28;20069;-70
2022/10/31 01:44:26;;;;;;;18.98;6.55;;;;;;;9.40;100.00;96339.69;1027204;28;20023;-71
2022/10/31 01:44:59;;;;;;;12.95;5.80;;;;;;;9.40;100.00;96341.53;1027082;28;20274;-71
2022/10/31 01:45:29;;;;;;;9.88;5.32;;;;;;;9.39;100.00;96342.56;1031044;28;20025;-71
2022/10/31 01:46:00;;;;;;;15.75;6.10;;;;;;;9.38;100.00;96336.50;1031143;28;20267;-71
2022/10/31 01:46:35;;;;;;;15.13;5.95;;;;;;;9.37;100.00;96339.38;1026843;28;20014;-72
2022/10/31 01:47:17;;;;;;;12.70;6.10;;;;;;;9.40;100.00;96333.66;1035210;28;20105;-71
2022/10/31 01:47:47;;;;;;;15.60;6.20;;;;;;;9.37;100.00;96331.53;1035215;28;20261;-71
2022/10/31 01:48:19;;;;;;;17.00;6.50;;;;;;;9.43;100.00;96330.56;1027168;28;20277;-71
2022/10/31 01:48:51;;;;;;;15.55;6.22;;;;;;;9.38;100.00;96335.72;1019272;29;20513;-71
2022/10/31 01:49:39;;;;;;;13.68;6.63;;;;;;;9.44;100.00;96340.00;1027177;28;20258;-71
2022/10/31 01:50:39;;;;;;;24.70;6.00;;;;;;;9.40;100.00;96341.53;1019316;29;20661;-71
2022/10/31 01:51:10;;;;;;;12.40;5.55;;;;;;;9.36;100.00;96332.56;1007080;29;20652;-70
2022/10/31 01:51:44;;;;;;;14.85;6.30;;;;;;;9.33;100.00;96327.81;1014935;29;20028;-71
2022/10/31 01:52:21;;;;;;;16.85;6.05;;;;;;;9.45;100.00;96337.13;1026542;28;20019;-71
2022/10/31 01:52:52;;;;;;;14.27;6.47;;;;;;;9.49;100.00;96344.50;1027091;28;20258;-73
2022/10/31 01:53:22;;;;;;;11.88;6.30;;;;;;;9.41;100.00;96335.25;1031203;28;20623;-69
2022/10/31 01:53:55;;;;;;;17.48;6.65;;;;;;;9.43;100.00;96335.81;1031037;28;20452;-71
2022/10/31 01:54:28;;;;;;;14.68;5.88;;;;;;;9.35;100.00;96330.97;1039334;28;20561;-70
2022/10/31 01:55:01;;;;;;;19.38;6.00;;;;;;;9.37;100.00;96340.16;1030863;28;20269;-70
2022/10/31 01:55:35;;;;;;;16.08;6.13;;;;;;;9.39;100.00;96337.31;1027181;28;20647;-71
2022/10/31 01:56:06;;;;;;;14.50;6.47;;;;;;;9.37;100.00;96349.84;1031186;28;20266;-71
2022/10/31 01:56:38;;;;;;;11.88;5.65;;;;;;;9.36;100.00;96337.81;1026880;28;20281;-70
2022/10/31 01:57:10;;;;;;;15.68;7.03;;;;;;;9.33;100.00;96339.06;1027176;28;20010;-71
2022/10/31 01:57:41;;;;;;;14.15;6.28;;;;;;;9.39;100.00;96340.75;1019121;29;20787;-71
2022/10/31 01:58:14;;;;;;;15.95;6.03;;;;;;;9.41;100.00;96338.66;1027006;28;20284;-73
2022/10/31 01:58:45;;;;;;;13.02;6.35;;;;;;;9.35;100.00;96331.75;1035208;28;20289;-73
2022/10/31 01:59:16;;;;;;;14.68;6.10;;;;;;;9.36;100.00;96338.59;1031101;28;20273;-70
2022/10/31 01:59:48;;;;;;;11.25;6.57;;;;;;;9.40;100.00;96338.91;1033983;28;20040;-71
2022/10/31 02:00:19;;;;;;;13.60;6.60;;;;;;;9.33;100.00;96338.28;1031234;28;20348;-71
2022/10/31 02:00:51;;;;;;;14.13;5.93;;;;;;;9.38;100.00;96339.13;1027126;28;20271;-72
2022/10/31 02:01:22;;;;;;;17.15;6.38;;;;;;;9.35;100.00;96344.06;1023201;28;20603;-70
2022/10/31 02:01:52;;;;;;;10.35;6.00;;;;;;;9.30;100.00;96330.91;1026944;28;20321;-72
2022/10/31 02:02:22;;;;;;;12.13;5.88;;;;;;;9.34;100.00;96339.84;1026639;28;20049;-69
2022/10/31 02:02:55;;;;;;;16.38;6.82;;;;;;;9.31;100.00;96341.13;1031120;28;20053;-71
2022/10/31 02:03:26;;;;;;;16.45;5.90;;;;;;;9.28;100.00;96338.19;1034017;28;20021;-72
2022/10/31 02:03:56;;;;;;;13.73;6.20;;;;;;;9.26;100.00;96345.50;1031063;28;20266;-71
2022/10/31 02:04:27;;;;;;;13.55;5.80;;;;;;;9.24;100.00;96339.72;1023272;29;20420;-71
2022/10/31 02:04:58;;;;;;;19.08;6.22;;;;;;;9.19;100.00;96338.59;1030938;28;20022;-72
2022/10/31 02:05:31;;;;;;;12.30;6.53;;;;;;;9.19;100.00;96343.84;1019253;29;20023;-73
2022/10/31 02:06:02;;;;;;;13.10;5.93;;;;;;;9.16;100.00;96346.94;1015289;29;20484;-70
2022/10/31 02:06:35;;;;;;;15.48;5.93;;;;;;;9.16;100.00;96351.38;1018928;29;20272;-70
2022/10/31 02:07:09;;;;;;;11.18;5.75;;;;;;;9.06;100.00;96336.31;1019195;29;20458;-72
2022/10/31 02:07:53;;;;;;;15.02;6.20;;;;;;;9.09;100.00;96348.91;1023043;28;20258;-71
2022/10/31 02:08:28;;;;;;;16.83;6.45;;;;;;;9.04;100.00;96340.97;1030873;28;20347;-71
2022/10/31 02:08:59;;;;;;;18.02;5.78;;;;;;;9.00;100.00;96345.09;1027139;28;20277;-71
2022/10/31 02:09:30;;;;;;;8.77;5.65;;;;;;;8.99;100.00;96343.53;1027267;28;20337;-70
2022/10/31 02:10:02;;;;;;;15.20;6.15;;;;;;;8.93;100.00;96340.00;1029731;28;20105;-70
2022/10/31 02:10:32;;;;;;;19.27;6.60;;;;;;;8.95;100.00;96347.63;1026987;28;20382;-71
2022/10/31 02:11:03;;;;;;;10.77;5.40;;;;;;;8.87;100.00;96340.16;1031147;28;20300;-70
2022/10/31 02:11:34;;;;;;;13.23;6.07;;;;;;;8.94;100.00;96348.66;1031130;28;20029;-70
2022/10/31 02:12:05;;;;;;;9.60;5.80;;;;;;;8.92;100.00;96343.66;1031443;28;20018;-71
2022/10/31 02:12:38;;;;;;;16.02;6.32;;;;;;;8.89;100.00;96343.34;1018382;29;20272;-72
2022/10/31 02:13:09;;;;;;;12.85;6.18;;;;;;;8.87;100.00;96351.41;1031342;28;20030;-70
2022/10/31 02:13:39;;;;;;;20.08;6.80;;;;;;;8.77;100.00;96329.53;1026981;28;20289;-70
2022/10/31 02:14:10;;;;;;;12.45;5.88;;;;;;;8.86;100.00;96343.81;1031321;28;20054;-70
2022/10/31 02:14:43;;;;;;;13.18;5.97;;;;;;;8.85;100.00;96347.44;1031146;28;20022;-70
2022/10/31 02:15:13;;;;;;;12.13;6.00;;;;;;;8.83;100.00;96349.53;1026954;28;20058;-71
2022/10/31 02:15:44;;;;;;;13.68;5.85;;;;;;;8.87;100.00;96342.78;1030763;28;20266;-71
2022/10/31 02:16:14;;;;;;;18.05;7.00;;;;;;;8.85;100.00;96348.28;1029245;28;20026;-71
2022/10/31 02:16:45;;;;;;;18.38;6.18;;;;;;;8.81;100.00;96343.72;1018980;29;20047;-71
2022/10/31 02:17:15;;;;;;;12.98;6.22;;;;;;;8.87;100.00;96342.78;1031120;28;20530;-71
2022/10/31 02:17:46;;;;;;;16.20;6.13;;;;;;;8.86;100.00;96349.06;1031170;28;20077;-71
2022/10/31 02:18:16;;;;;;;13.90;6.65;;;;;;;8.85;100.00;96334.38;1015301;29;20131;-69
2022/10/31 02:18:47;;;;;;;15.98;6.22;;;;;;;8.88;100.00;96346.97;1030990;28;20049;-72
2022/10/31 02:19:37;;;;;;;13.18;6.47;;;;;;;8.87;100.00;96340.97;1031103;28;20132;-71
2022/10/31 02:20:15;;;;;;;14.20;5.90;;;;;;;8.87;100.00;96345.41;1020316;28;20027;-72
2022/10/31 02:20:45;;;;;;;16.55;6.32;;;;;;;8.86;100.00;96342.00;1023039;29;20787;-72
2022/10/31 02:21:28;;;;;;;12.40;6.10;;;;;;;8.83;100.00;96339.06;1026933;28;20357;-70
2022/10/31 02:22:15;;;;;;;17.52;6.18;;;;;;;8.81;100.00;96341.09;1029066;28;20073;-70
2022/10/31 02:23:13;;;;;;;12.07;5.60;;;;;;;8.77;100.00;96335.56;1031033;28;20405;-72
2022/10/31 02:24:02;;;;;;;10.65;6.22;;;;;;;8.72;100.00;96338.88;1031052;28;20249;-71
2022/10/31 02:24:57;;;;;;;13.57;6.30;;;;;;;8.68;100.00;96337.75;1022041;28;20259;-70
2022/10/31 02:25:50;;;;;;;9.48;5.78;;;;;;;8.63;100.00;96335.06;1030992;28;20254;-70
2022/10/31 02:26:59;;;;;;;9.40;4.95;;;;;;;8.60;100.00;96338.13;1038630;28;20265;-71
2022/10/31 02:28:09;;;;;;;12.70;5.97;;;;;;;8.50;100.00;96330.13;1024941;28;20289;-71
2022/10/31 02:28:58;;;;;;;9.90;5.28;;;;;;;8.51;100.00;96342.16;1022631;28;20266;-71
2022/10/31 02:29:28;;;;;;;16.75;5.78;;;;;;;8.48;100.00;96337.38;1030610;28;20262;-70
2022/10/31 02:30:06;;;;;;;12.48;6.38;;;;;;;8.40;100.00;96329.94;1034241;28;20253;-70